Aviation Digital Data Service (ADDS)

Output produced by METARs form (0030 UTC 29 June 2017)
found at http://aviationweather.gov/adds/metars/
 
KLBT 282350Z 2900/2924 11003KT P6SM SCT250 
     FM291600 14008KT P6SM SCT045